createdAt,value
2022-12-02T00:00:53.865Z,78.54
2022-12-02T00:03:25.993Z,78.17
2022-12-02T00:05:55.784Z,78.10
2022-12-02T00:08:28.619Z,78.26
2022-12-02T00:11:01.328Z,78.19
2022-12-02T00:13:43.652Z,78.24
2022-12-02T00:16:20.244Z,78.64
2022-12-02T00:18:49.383Z,78.33
2022-12-02T00:21:17.943Z,78.45
2022-12-02T00:23:46.555Z,78.55
2022-12-02T00:26:14.971Z,78.77
2022-12-02T00:28:43.379Z,79.01
2022-12-02T00:31:11.908Z,78.92
2022-12-02T00:33:40.182Z,79.95
2022-12-02T00:36:08.528Z,80.58
2022-12-02T00:38:36.992Z,79.74
2022-12-02T00:41:05.565Z,79.70
2022-12-02T00:43:52.384Z,80.87
2022-12-02T00:46:32.979Z,79.69
2022-12-02T00:49:08.844Z,80.76
2022-12-02T00:51:38.843Z,81.17
2022-12-02T00:54:07.913Z,81.33
2022-12-02T00:56:36.669Z,81.73
2022-12-02T00:59:05.486Z,81.97
2022-12-02T01:01:35.992Z,81.97
2022-12-02T01:04:06.110Z,82.18
2022-12-02T01:06:34.586Z,82.34
2022-12-02T01:09:03.165Z,82.27
2022-12-02T01:11:32.195Z,82.19
2022-12-02T01:14:00.673Z,82.08
2022-12-02T01:16:30.611Z,82.31
2022-12-02T01:18:59.129Z,82.45
2022-12-02T01:21:27.726Z,81.63
2022-12-02T01:23:56.183Z,81.71
2022-12-02T01:26:24.647Z,82.14
2022-12-02T01:28:53.079Z,81.74
2022-12-02T01:31:21.629Z,81.48
2022-12-02T01:33:49.888Z,81.29
2022-12-02T01:36:18.144Z,81.38
2022-12-02T01:38:46.528Z,80.99
2022-12-02T01:41:14.831Z,81.46
2022-12-02T01:43:43.999Z,81.43
2022-12-02T01:46:12.827Z,81.39
2022-12-02T01:48:41.326Z,81.19
2022-12-02T01:51:10.365Z,81.82
2022-12-02T01:53:39.730Z,81.33
2022-12-02T01:56:11.233Z,81.26
2022-12-02T01:58:39.889Z,81.47
2022-12-02T02:01:31.608Z,81.99
2022-12-02T02:04:02.044Z,82.00
2022-12-02T02:06:35.364Z,82.34
2022-12-02T02:09:05.338Z,82.52
2022-12-02T02:11:35.554Z,82.07
2022-12-02T02:14:07.049Z,81.96
2022-12-02T02:16:37.378Z,82.73
2022-12-02T02:19:09.786Z,82.66
2022-12-02T02:21:44.549Z,82.32
2022-12-02T02:24:13.813Z,82.10
2022-12-02T02:26:42.628Z,82.71
2022-12-02T02:29:11.280Z,82.55
2022-12-02T02:31:40.321Z,82.39
2022-12-02T02:34:09.160Z,82.29
2022-12-02T02:36:37.949Z,82.32
2022-12-02T02:39:07.809Z,82.44
2022-12-02T02:41:37.043Z,82.45
2022-12-02T02:44:05.936Z,82.12
2022-12-02T02:46:34.798Z,82.64
2022-12-02T02:49:03.826Z,81.94
2022-12-02T02:51:32.185Z,81.91
2022-12-02T02:54:00.876Z,82.78
2022-12-02T02:56:29.600Z,82.25
2022-12-02T02:58:57.979Z,81.99
2022-12-02T03:01:36.758Z,81.85
2022-12-02T03:04:11.130Z,81.99
2022-12-02T03:06:41.952Z,82.04
2022-12-02T03:09:14.282Z,82.81
2022-12-02T03:11:44.268Z,82.41
2022-12-02T03:14:15.869Z,81.73
2022-12-02T03:16:45.800Z,82.03
2022-12-02T03:19:14.626Z,83.02
2022-12-02T03:21:43.092Z,83.09
2022-12-02T03:24:11.759Z,83.35
2022-12-02T03:26:41.224Z,83.41
2022-12-02T03:29:11.910Z,82.76
2022-12-02T03:31:40.392Z,81.87
2022-12-02T03:34:09.880Z,82.24
2022-12-02T03:36:38.711Z,82.08
2022-12-02T03:39:08.024Z,81.73
2022-12-02T03:41:37.399Z,81.39
2022-12-02T03:44:06.253Z,82.02
2022-12-02T03:46:34.606Z,82.56
2022-12-02T03:49:03.264Z,82.99
2022-12-02T03:51:32.778Z,83.73
2022-12-02T03:54:01.960Z,83.86
2022-12-02T03:56:30.454Z,83.25
2022-12-02T03:58:58.676Z,83.54
2022-12-02T04:01:26.925Z,83.42
2022-12-02T04:03:55.221Z,82.97
2022-12-02T04:06:23.702Z,82.78
2022-12-02T04:08:52.133Z,82.12
2022-12-02T04:11:20.398Z,82.05
2022-12-02T04:13:48.684Z,83.24
2022-12-02T04:16:16.963Z,83.72
2022-12-02T04:18:45.322Z,84.01
2022-12-02T04:21:13.672Z,83.88
2022-12-02T04:23:41.992Z,83.89
2022-12-02T04:26:10.250Z,84.64
2022-12-02T04:28:38.578Z,84.64
2022-12-02T04:31:06.881Z,84.55
2022-12-02T04:33:35.282Z,85.04
2022-12-02T04:36:03.851Z,85.14
2022-12-02T04:38:32.172Z,85.15
2022-12-02T04:41:00.460Z,85.89
2022-12-02T04:43:28.787Z,85.44
2022-12-02T04:45:57.144Z,84.96
2022-12-02T04:48:25.657Z,84.90
2022-12-02T04:50:54.044Z,84.59
2022-12-02T04:53:22.309Z,84.72
2022-12-02T04:55:50.554Z,84.50
2022-12-02T04:58:19.327Z,84.37
2022-12-02T05:00:47.583Z,84.37
2022-12-02T05:03:15.861Z,84.45
2022-12-02T05:05:44.190Z,84.16
2022-12-02T05:08:12.512Z,83.62
2022-12-02T05:10:40.876Z,83.74
2022-12-02T05:13:09.093Z,83.82
2022-12-02T05:15:37.334Z,83.43
2022-12-02T05:18:05.681Z,83.96
2022-12-02T05:20:33.926Z,84.14
2022-12-02T05:23:02.241Z,84.07
2022-12-02T05:25:30.623Z,84.57
2022-12-02T05:27:58.883Z,83.73
2022-12-02T05:30:27.326Z,83.77
2022-12-02T05:32:55.581Z,84.23
2022-12-02T05:35:23.954Z,84.89
2022-12-02T05:37:52.286Z,84.64
2022-12-02T05:40:20.673Z,84.23
2022-12-02T05:42:48.941Z,84.57
2022-12-02T05:45:22.534Z,84.91
2022-12-02T05:47:54.343Z,84.69
2022-12-02T05:50:23.597Z,84.93
2022-12-02T05:52:56.593Z,85.13
2022-12-02T05:55:24.873Z,84.67
2022-12-02T05:58:01.144Z,84.68
2022-12-02T06:00:30.831Z,84.61
2022-12-02T06:03:02.970Z,84.97
2022-12-02T06:05:43.136Z,84.60
2022-12-02T06:08:36.261Z,85.03
2022-12-02T06:11:30.215Z,84.53
2022-12-02T06:14:01.659Z,84.77
2022-12-02T06:16:31.861Z,84.92
2022-12-02T06:19:00.711Z,84.93
2022-12-02T06:21:29.049Z,84.94
2022-12-02T06:23:59.128Z,84.20
2022-12-02T06:26:27.456Z,84.59
2022-12-02T06:29:03.966Z,85.08
2022-12-02T06:31:38.187Z,85.30
2022-12-02T06:34:19.366Z,84.74
2022-12-02T06:36:47.576Z,85.19
2022-12-02T06:39:21.882Z,85.23
2022-12-02T06:41:52.025Z,86.32
2022-12-02T06:44:41.135Z,85.97
2022-12-02T06:47:35.149Z,85.43
2022-12-02T06:50:06.393Z,85.58
2022-12-02T06:52:37.976Z,86.03
2022-12-02T06:55:31.726Z,85.72
2022-12-02T06:58:27.404Z,86.22
2022-12-02T07:01:09.361Z,86.23
2022-12-02T07:03:44.663Z,85.99
2022-12-02T07:06:19.887Z,85.85
2022-12-02T07:08:48.223Z,86.42
2022-12-02T07:11:43.952Z,85.65
2022-12-02T07:14:48.764Z,85.86
2022-12-02T07:17:29.691Z,86.31
2022-12-02T07:20:09.360Z,85.93
2022-12-02T07:22:46.125Z,85.43
2022-12-02T07:25:24.898Z,85.48
2022-12-02T07:27:53.794Z,86.36
2022-12-02T07:30:30.518Z,86.02
2022-12-02T07:33:00.167Z,85.71
2022-12-02T07:35:28.991Z,85.08
2022-12-02T07:37:58.238Z,85.11
2022-12-02T07:40:28.432Z,84.97
2022-12-02T07:42:56.795Z,85.02
2022-12-02T07:45:25.065Z,85.04
2022-12-02T07:47:53.479Z,85.39
2022-12-02T07:50:21.802Z,85.27
2022-12-02T07:52:50.144Z,85.06
2022-12-02T07:55:22.845Z,85.09
2022-12-02T07:57:54.742Z,85.34
2022-12-02T08:00:23.889Z,84.80
2022-12-02T08:02:52.826Z,84.93
2022-12-02T08:05:21.564Z,84.65
2022-12-02T08:07:50.268Z,84.88
2022-12-02T08:10:18.551Z,84.79
2022-12-02T08:12:47.299Z,84.85
2022-12-02T08:15:16.191Z,84.89
2022-12-02T08:17:44.470Z,84.75
2022-12-02T08:20:13.389Z,84.66
2022-12-02T08:22:41.578Z,84.80
2022-12-02T08:25:11.108Z,84.69
2022-12-02T08:27:45.076Z,84.58
2022-12-02T08:30:15.740Z,84.38
2022-12-02T08:32:44.181Z,84.90
2022-12-02T08:35:13.252Z,84.63
2022-12-02T08:37:41.919Z,84.83
2022-12-02T08:40:10.786Z,84.84
2022-12-02T08:42:39.251Z,84.59
2022-12-02T08:45:07.978Z,84.47
2022-12-02T08:47:36.316Z,84.49
2022-12-02T08:50:05.858Z,84.38
2022-12-02T08:52:34.160Z,83.92
2022-12-02T08:55:02.531Z,83.75
2022-12-02T08:57:30.842Z,84.22
2022-12-02T08:59:59.084Z,84.56
2022-12-02T09:02:27.284Z,84.30
2022-12-02T09:04:55.750Z,84.14
2022-12-02T09:07:24.065Z,84.04
2022-12-02T09:09:52.377Z,84.15
2022-12-02T09:12:20.991Z,84.18
2022-12-02T09:14:49.420Z,84.16
2022-12-02T09:17:17.842Z,83.87
2022-12-02T09:19:46.064Z,83.88
2022-12-02T09:22:14.286Z,83.88
2022-12-02T09:24:42.582Z,83.74
2022-12-02T09:27:11.167Z,83.48
2022-12-02T09:29:39.625Z,83.33
2022-12-02T09:32:08.003Z,83.43
2022-12-02T09:34:36.257Z,83.13
2022-12-02T09:37:06.066Z,82.22
2022-12-02T09:39:38.810Z,82.27
2022-12-02T09:42:08.750Z,81.56
2022-12-02T09:44:38.670Z,82.08
2022-12-02T09:47:07.457Z,81.81
2022-12-02T09:49:36.221Z,81.53
2022-12-02T09:52:07.532Z,81.83
2022-12-02T09:54:36.051Z,81.68
2022-12-02T09:57:10.163Z,81.48
2022-12-02T09:59:39.182Z,81.32
2022-12-02T10:02:30.190Z,81.27
2022-12-02T10:05:04.607Z,81.28
2022-12-02T10:07:33.000Z,80.95
2022-12-02T10:10:01.306Z,80.36
2022-12-02T10:12:29.559Z,79.57
2022-12-02T10:14:59.593Z,77.96
2022-12-02T10:17:29.114Z,78.99
2022-12-02T10:19:57.539Z,78.56
2022-12-02T10:22:25.873Z,78.89
2022-12-02T10:24:55.180Z,78.61
2022-12-02T10:27:31.993Z,78.62
2022-12-02T10:30:23.796Z,77.73
2022-12-02T10:33:04.299Z,77.94
2022-12-02T10:35:48.627Z,78.18
2022-12-02T10:38:40.008Z,78.20
2022-12-02T10:41:14.396Z,78.02
2022-12-02T10:43:45.332Z,77.47
2022-12-02T10:46:16.694Z,77.87
2022-12-02T10:48:45.116Z,77.97
2022-12-02T10:51:15.743Z,77.92
2022-12-02T10:53:45.813Z,78.71
2022-12-02T10:56:20.428Z,78.57
2022-12-02T10:58:51.358Z,78.59
2022-12-02T11:01:23.100Z,78.28
2022-12-02T11:03:51.544Z,78.53
2022-12-02T11:06:21.323Z,78.60
2022-12-02T11:08:50.453Z,78.62
2022-12-02T11:11:24.762Z,78.61
2022-12-02T11:14:01.118Z,77.85
2022-12-02T11:16:29.624Z,78.30
2022-12-02T11:19:03.810Z,78.47
2022-12-02T11:21:43.172Z,78.37
2022-12-02T11:24:23.619Z,78.28
2022-12-02T11:27:01.285Z,78.19
2022-12-02T11:29:43.132Z,77.93
2022-12-02T11:32:26.747Z,77.67
2022-12-02T11:37:49.743Z,77.76
2022-12-02T11:40:17.985Z,78.02
2022-12-02T11:42:46.571Z,77.40
2022-12-02T11:45:17.626Z,77.98
2022-12-02T11:47:57.470Z,77.98
2022-12-02T11:50:38.532Z,77.65
2022-12-02T11:53:17.063Z,77.49
2022-12-02T11:55:48.504Z,77.36
2022-12-02T11:58:33.067Z,77.92
2022-12-02T12:01:19.188Z,78.39
2022-12-02T12:03:52.542Z,78.18
2022-12-02T12:06:23.697Z,77.53
2022-12-02T12:08:55.616Z,77.78
2022-12-02T12:11:28.281Z,78.02
2022-12-02T12:14:18.317Z,77.47
2022-12-02T12:16:48.879Z,77.26
2022-12-02T12:19:17.160Z,77.20
2022-12-02T12:21:50.501Z,77.63
2022-12-02T12:24:20.151Z,77.55
2022-12-02T12:26:54.173Z,77.47
2022-12-02T12:29:25.960Z,77.79
2022-12-02T12:31:54.891Z,77.87
2022-12-02T12:34:23.274Z,77.60
2022-12-02T12:36:51.552Z,77.65
2022-12-02T12:39:19.860Z,77.78
2022-12-02T12:42:03.416Z,77.67
2022-12-02T12:44:32.849Z,77.81
2022-12-02T12:47:04.393Z,77.89
2022-12-02T12:49:34.612Z,77.91
2022-12-02T12:52:03.094Z,77.65
2022-12-02T12:54:31.427Z,77.73
2022-12-02T12:56:59.688Z,77.61
2022-12-02T12:59:28.001Z,77.45
2022-12-02T13:01:56.348Z,77.50
2022-12-02T13:04:24.852Z,77.43
2022-12-02T13:06:53.116Z,77.51
2022-12-02T13:09:21.565Z,77.84
2022-12-02T13:11:49.754Z,77.79
2022-12-02T13:14:18.029Z,77.94
2022-12-02T13:16:46.471Z,77.85
2022-12-02T13:19:14.766Z,78.02
2022-12-02T13:21:43.097Z,78.26
2022-12-02T13:24:11.414Z,78.11
2022-12-02T13:26:39.955Z,78.49
2022-12-02T13:29:08.340Z,78.66
2022-12-02T13:31:36.862Z,78.51
2022-12-02T13:34:05.399Z,78.84
2022-12-02T13:36:33.881Z,79.53
2022-12-02T13:39:06.207Z,79.20
2022-12-02T13:41:35.139Z,78.98
2022-12-02T13:44:03.953Z,79.09
2022-12-02T13:46:32.789Z,79.58
2022-12-02T13:49:01.107Z,79.79
2022-12-02T13:51:29.329Z,80.03
2022-12-02T13:53:59.563Z,80.23
2022-12-02T13:56:28.214Z,79.83
2022-12-02T13:58:56.627Z,80.30
2022-12-02T14:01:25.248Z,80.59
2022-12-02T14:03:53.812Z,80.35
2022-12-02T14:06:22.168Z,80.58
2022-12-02T14:08:50.491Z,80.74
2022-12-02T14:11:21.613Z,80.50
2022-12-02T14:13:51.157Z,80.71
2022-12-02T14:16:21.075Z,80.82
2022-12-02T14:18:55.474Z,80.84
2022-12-02T14:21:25.889Z,80.85
2022-12-02T14:23:54.623Z,81.01
2022-12-02T14:26:22.965Z,80.79
2022-12-02T14:28:51.331Z,81.05
2022-12-02T14:31:26.128Z,81.23
2022-12-02T14:34:12.991Z,81.29
2022-12-02T14:36:43.436Z,81.16
2022-12-02T14:39:11.740Z,81.51
2022-12-02T14:41:40.145Z,81.56
2022-12-02T14:44:08.597Z,81.33
2022-12-02T14:46:37.179Z,81.55
2022-12-02T14:49:38.547Z,82.00
2022-12-02T14:51:53.741Z,81.82
2022-12-02T14:54:21.953Z,82.72
2022-12-02T14:56:50.201Z,82.84
2022-12-02T14:59:18.507Z,83.36
2022-12-02T15:01:46.946Z,82.88
2022-12-02T15:04:15.310Z,82.46
2022-12-02T15:06:45.072Z,82.41
2022-12-02T15:09:13.496Z,82.14
2022-12-02T15:11:41.831Z,82.42
2022-12-02T15:14:10.145Z,82.41
2022-12-02T15:16:38.581Z,82.17
2022-12-02T15:19:06.878Z,82.10
2022-12-02T15:21:35.223Z,82.44
2022-12-02T15:24:03.898Z,82.36
2022-12-02T15:26:32.326Z,82.34
2022-12-02T15:29:00.706Z,82.36
2022-12-02T15:31:29.477Z,82.58
2022-12-02T15:33:58.051Z,82.48
2022-12-02T15:36:26.682Z,82.47
2022-12-02T15:38:55.374Z,82.34
2022-12-02T15:41:24.313Z,82.35
2022-12-02T15:43:54.057Z,82.05
2022-12-02T15:46:24.241Z,82.15
2022-12-02T15:48:52.830Z,82.17
2022-12-02T15:51:21.732Z,82.38
2022-12-02T15:53:50.523Z,82.55
2022-12-02T15:56:19.367Z,82.42
2022-12-02T15:58:50.475Z,82.61
2022-12-02T16:01:19.015Z,82.57
2022-12-02T16:03:47.379Z,82.51
2022-12-02T16:06:16.306Z,82.73
2022-12-02T16:08:47.645Z,82.37
2022-12-02T16:11:18.598Z,82.42
2022-12-02T16:13:49.738Z,82.51
2022-12-02T16:16:19.144Z,82.35
2022-12-02T16:18:49.683Z,82.38
2022-12-02T16:21:18.951Z,82.61
2022-12-02T16:23:49.838Z,82.47
2022-12-02T16:26:18.586Z,82.64
2022-12-02T16:28:47.752Z,82.60
2022-12-02T16:31:16.733Z,82.44
2022-12-02T16:33:46.311Z,82.39
2022-12-02T16:36:15.138Z,82.49
2022-12-02T16:38:44.041Z,82.33
2022-12-02T16:41:18.541Z,82.41
2022-12-02T16:43:48.413Z,82.32
2022-12-02T16:46:19.531Z,82.55
2022-12-02T16:48:48.544Z,82.85
2022-12-02T16:51:17.358Z,82.66
2022-12-02T16:53:46.245Z,82.52
2022-12-02T16:56:15.081Z,82.45
2022-12-02T16:58:44.189Z,82.69
2022-12-02T17:01:17.783Z,82.88
2022-12-02T17:03:46.761Z,82.77
2022-12-02T17:06:20.353Z,82.28
2022-12-02T17:08:55.661Z,82.30
2022-12-02T17:11:27.176Z,82.38
2022-12-02T17:14:04.866Z,82.39
2022-12-02T17:16:33.866Z,82.80
2022-12-02T17:19:06.222Z,82.60
2022-12-02T17:21:35.492Z,82.57
2022-12-02T17:24:04.551Z,82.61
2022-12-02T17:26:34.939Z,82.49
2022-12-02T17:29:04.195Z,82.74
2022-12-02T17:31:33.150Z,82.96
2022-12-02T17:34:02.189Z,82.94
2022-12-02T17:36:30.993Z,82.78
2022-12-02T17:38:59.781Z,82.85
2022-12-02T17:41:30.353Z,82.88
2022-12-02T17:43:59.184Z,82.60
2022-12-02T17:46:27.813Z,82.86
2022-12-02T17:48:56.782Z,82.62
2022-12-02T17:51:25.525Z,82.57
2022-12-02T17:53:54.419Z,82.79
2022-12-02T17:56:23.126Z,82.80
2022-12-02T17:58:51.792Z,82.54
2022-12-02T18:01:20.442Z,82.71
2022-12-02T18:03:49.106Z,82.88
2022-12-02T18:06:17.943Z,82.85
2022-12-02T18:08:46.515Z,82.65
2022-12-02T18:11:15.177Z,82.42
2022-12-02T18:13:44.525Z,82.67
2022-12-02T18:16:13.322Z,82.68
2022-12-02T18:18:42.194Z,82.91
2022-12-02T18:21:10.605Z,83.18
2022-12-02T18:23:39.011Z,82.95
2022-12-02T18:26:07.314Z,83.14
2022-12-02T18:28:35.583Z,83.06
2022-12-02T18:31:05.616Z,82.91
2022-12-02T18:33:33.904Z,82.86
2022-12-02T18:36:02.176Z,82.81
2022-12-02T18:38:30.414Z,82.74
2022-12-02T18:40:59.251Z,82.90
2022-12-02T18:43:32.008Z,82.83
2022-12-02T18:46:03.792Z,82.86
2022-12-02T18:48:32.679Z,82.73
2022-12-02T18:51:01.656Z,82.94
2022-12-02T18:53:30.680Z,82.92
2022-12-02T18:55:59.698Z,83.23
2022-12-02T18:58:28.667Z,82.98
2022-12-02T19:00:57.513Z,83.14
2022-12-02T19:03:26.562Z,83.47
2022-12-02T19:05:55.649Z,83.44
2022-12-02T19:08:24.570Z,83.46
2022-12-02T19:10:58.942Z,83.35
2022-12-02T19:13:27.879Z,83.25
2022-12-02T19:16:03.358Z,83.35
2022-12-02T19:18:33.155Z,83.35
2022-12-02T19:21:02.630Z,83.54
2022-12-02T19:23:31.322Z,83.33
2022-12-02T19:25:59.777Z,83.33
2022-12-02T19:28:28.385Z,83.20
2022-12-02T19:30:56.736Z,83.28
2022-12-02T19:33:25.019Z,83.48
2022-12-02T19:35:53.331Z,83.32
2022-12-02T19:38:21.836Z,83.26
2022-12-02T19:40:50.247Z,83.36
2022-12-02T19:43:18.694Z,83.62
2022-12-02T19:45:46.974Z,83.80
2022-12-02T19:48:15.339Z,83.88
2022-12-02T19:50:43.943Z,83.71
2022-12-02T19:53:12.389Z,84.08
2022-12-02T19:55:40.616Z,83.92
2022-12-02T19:58:09.106Z,84.16
2022-12-02T20:00:37.337Z,83.53
2022-12-02T20:03:05.761Z,84.03
2022-12-02T20:05:34.283Z,83.98
2022-12-02T20:08:02.648Z,83.88
2022-12-02T20:10:31.068Z,83.45
2022-12-02T20:12:59.373Z,83.45
2022-12-02T20:15:28.389Z,83.19
2022-12-02T20:17:57.744Z,82.97
2022-12-02T20:20:26.442Z,83.07
2022-12-02T20:22:54.874Z,82.78
2022-12-02T20:25:23.146Z,83.34
2022-12-02T20:27:54.604Z,83.28
2022-12-02T20:30:23.400Z,83.64
2022-12-02T20:32:51.901Z,83.48
2022-12-02T20:35:20.318Z,83.10
2022-12-02T20:37:48.918Z,83.63
2022-12-02T20:40:17.955Z,83.90
2022-12-02T20:42:46.297Z,83.55
2022-12-02T20:45:14.819Z,83.99
2022-12-02T20:47:43.141Z,83.88
2022-12-02T20:50:12.171Z,83.67
2022-12-02T20:52:41.884Z,83.94
2022-12-02T20:55:13.355Z,83.80
2022-12-02T20:57:45.130Z,84.06
2022-12-02T21:00:13.720Z,83.68
2022-12-02T21:02:42.397Z,83.86
2022-12-02T21:05:49.462Z,83.62
2022-12-02T21:08:19.377Z,83.53
2022-12-02T21:10:55.643Z,84.09
2022-12-02T21:13:33.138Z,84.36
2022-12-02T21:18:43.786Z,84.46
2022-12-02T21:21:12.442Z,84.01
2022-12-02T21:23:47.029Z,84.00
2022-12-02T21:26:17.424Z,84.16
2022-12-02T21:28:49.016Z,84.24
2022-12-02T21:31:17.319Z,84.75
2022-12-02T21:34:00.045Z,85.10
2022-12-02T21:36:28.188Z,84.85
2022-12-02T21:38:56.518Z,84.74
2022-12-02T21:41:28.163Z,84.72
2022-12-02T21:43:56.430Z,84.88
2022-12-02T21:46:27.425Z,84.93
2022-12-02T21:49:00.138Z,84.99
2022-12-02T21:51:42.244Z,84.48
2022-12-02T21:54:15.281Z,84.78
2022-12-02T21:56:44.717Z,84.38
2022-12-02T21:59:13.026Z,84.57
2022-12-02T22:01:42.683Z,84.60
2022-12-02T22:04:17.438Z,84.39
2022-12-02T22:06:48.909Z,84.25
2022-12-02T22:09:17.795Z,84.35
2022-12-02T22:12:09.896Z,84.20
2022-12-02T22:14:41.366Z,84.37
2022-12-02T22:17:14.013Z,84.53
2022-12-02T22:19:45.265Z,84.54
2022-12-02T22:22:45.556Z,84.77
2022-12-02T22:25:14.932Z,84.78
2022-12-02T22:28:02.402Z,85.00
2022-12-02T22:30:38.123Z,84.81
2022-12-02T22:33:18.530Z,84.72
2022-12-02T22:35:51.811Z,84.35
2022-12-02T22:38:20.148Z,84.61
2022-12-02T22:40:51.488Z,84.65
2022-12-02T22:43:21.664Z,84.41
2022-12-02T22:45:52.382Z,84.12
2022-12-02T22:48:23.917Z,84.12
2022-12-02T22:50:52.167Z,84.09
2022-12-02T22:53:26.949Z,83.98
2022-12-02T22:55:55.203Z,83.93
2022-12-02T22:58:28.001Z,83.64
2022-12-02T23:01:02.467Z,83.82
2022-12-02T23:03:30.880Z,84.04
2022-12-02T23:05:59.238Z,83.16
2022-12-02T23:08:27.567Z,83.30
2022-12-02T23:10:55.813Z,83.54
2022-12-02T23:13:23.987Z,83.60
2022-12-02T23:15:52.177Z,83.47
2022-12-02T23:18:20.560Z,83.84
2022-12-02T23:20:48.883Z,83.80
2022-12-02T23:23:17.067Z,84.19
2022-12-02T23:25:45.356Z,84.17
2022-12-02T23:28:13.578Z,83.87
2022-12-02T23:30:41.840Z,83.90
2022-12-02T23:33:10.110Z,84.39
2022-12-02T23:35:38.448Z,84.50
2022-12-02T23:38:06.772Z,84.49
2022-12-02T23:40:35.020Z,84.12
2022-12-02T23:43:03.879Z,84.48
2022-12-02T23:45:32.567Z,84.72
2022-12-02T23:48:00.811Z,84.81
2022-12-02T23:50:29.356Z,84.62
2022-12-02T23:52:57.625Z,84.36
2022-12-02T23:55:25.917Z,84.86
2022-12-02T23:57:54.149Z,85.36
